createdAt,value
2018-12-21T00:03:52.847Z,-0.11
2018-12-21T00:07:56.336Z,-0.13
2018-12-21T00:11:59.781Z,-0.16
2018-12-21T00:16:03.243Z,-0.17
2018-12-21T00:20:08.424Z,-0.22
2018-12-21T00:24:11.895Z,-0.23
2018-12-21T00:28:15.394Z,-0.28
2018-12-21T00:32:24.119Z,-0.27
2018-12-21T00:36:32.841Z,-0.20
2018-12-21T00:40:41.520Z,-0.13
2018-12-21T00:44:45.012Z,-0.16
2018-12-21T00:48:48.497Z,-0.22
2018-12-21T00:52:52.018Z,-0.23
2018-12-21T00:56:55.499Z,-0.18
2018-12-21T01:00:59.063Z,-0.13
2018-12-21T01:05:02.584Z,-0.08
2018-12-21T01:09:06.824Z,-0.10
2018-12-21T01:13:11.949Z,-0.17
2018-12-21T01:17:16.566Z,-0.19
2018-12-21T01:21:21.148Z,-0.24
2018-12-21T01:25:27.103Z,-0.27
2018-12-21T01:29:30.701Z,-0.21
2018-12-21T01:33:35.219Z,-0.11
2018-12-21T01:37:38.765Z,-0.03
2018-12-21T01:41:43.727Z,0.04
2018-12-21T01:45:47.281Z,0.03
2018-12-21T01:49:51.689Z,-0.10
2018-12-21T01:53:55.296Z,-0.11
2018-12-21T01:57:59.180Z,-0.05
2018-12-21T02:02:03.138Z,-0.03
2018-12-21T02:06:08.245Z,-0.01
2018-12-21T02:10:11.648Z,-0.03
2018-12-21T02:14:15.783Z,-0.07
2018-12-21T02:18:19.240Z,-0.06
2018-12-21T02:22:22.789Z,-0.01
2018-12-21T02:26:26.342Z,-0.02
2018-12-21T02:30:29.936Z,0.01
2018-12-21T02:34:33.403Z,-0.04
2018-12-21T02:38:36.901Z,-0.07
2018-12-21T02:42:40.398Z,-0.13
2018-12-21T02:46:43.920Z,-0.15
2018-12-21T02:50:47.603Z,-0.18
2018-12-21T02:54:51.980Z,-0.23
2018-12-21T02:58:55.693Z,-0.24
2018-12-21T03:02:59.374Z,-0.25
2018-12-21T03:07:02.983Z,-0.26
2018-12-21T03:11:07.516Z,-0.27
2018-12-21T03:15:10.996Z,-0.33
2018-12-21T03:19:14.463Z,-0.35
2018-12-21T03:23:17.974Z,-0.36
2018-12-21T03:27:21.895Z,-0.37
2018-12-21T03:31:25.483Z,-0.37
2018-12-21T03:35:29.059Z,-0.41
2018-12-21T03:39:32.645Z,-0.41
2018-12-21T03:43:38.125Z,-0.40
2018-12-21T03:47:42.318Z,-0.42
2018-12-21T03:51:46.029Z,-0.43
2018-12-21T03:55:49.696Z,-0.47
2018-12-21T03:59:53.147Z,-0.50
2018-12-21T04:03:58.145Z,-0.52
2018-12-21T04:08:03.318Z,-0.54
2018-12-21T04:12:06.803Z,-0.54
2018-12-21T04:16:11.699Z,-0.54
2018-12-21T04:20:15.252Z,-0.54
2018-12-21T04:24:19.705Z,-0.55
2018-12-21T04:28:23.331Z,-0.56
2018-12-21T04:32:27.373Z,-0.55
2018-12-21T04:36:31.309Z,-0.56
2018-12-21T04:40:34.947Z,-0.56
2018-12-21T04:44:38.389Z,-0.61
2018-12-21T04:48:41.863Z,-0.61
2018-12-21T04:52:45.414Z,-0.59
2018-12-21T04:56:48.896Z,-0.57
2018-12-21T05:00:52.484Z,-0.55
2018-12-21T05:04:56.011Z,-0.47
2018-12-21T05:09:00.372Z,-0.36
2018-12-21T05:13:03.853Z,-0.30
2018-12-21T05:17:07.497Z,-0.28
2018-12-21T05:21:11.523Z,-0.32
2018-12-21T05:25:14.951Z,-0.36
2018-12-21T05:29:18.524Z,-0.37
2018-12-21T05:33:22.043Z,-0.42
2018-12-21T05:37:25.529Z,-0.49
2018-12-21T05:41:29.019Z,-0.54
2018-12-21T05:45:32.471Z,-0.56
2018-12-21T05:49:36.083Z,-0.53
2018-12-21T05:53:39.696Z,-0.49
2018-12-21T05:57:43.308Z,-0.49
2018-12-21T06:01:46.772Z,-0.50
2018-12-21T06:05:50.224Z,-0.53
2018-12-21T06:09:53.683Z,-0.53
2018-12-21T06:13:57.157Z,-0.57
2018-12-21T06:18:00.652Z,-0.55
2018-12-21T06:22:04.789Z,-0.51
2018-12-21T06:26:08.722Z,-0.45
2018-12-21T06:30:13.250Z,-0.40
2018-12-21T06:34:16.715Z,-0.45
2018-12-21T06:38:20.419Z,-0.47
2018-12-21T06:42:24.241Z,-0.48
2018-12-21T06:46:27.940Z,-0.44
2018-12-21T06:50:31.554Z,-0.41
2018-12-21T06:54:35.299Z,-0.43
2018-12-21T06:58:38.987Z,-0.43
2018-12-21T07:02:42.492Z,-0.47
2018-12-21T07:06:45.960Z,-0.46
2018-12-21T07:10:49.519Z,-0.46
2018-12-21T07:14:53.000Z,-0.44
2018-12-21T07:18:56.523Z,-0.46
2018-12-21T07:22:59.991Z,-0.45
2018-12-21T07:27:04.719Z,-0.43
2018-12-21T07:31:08.194Z,-0.42
2018-12-21T07:35:14.055Z,-0.41
2018-12-21T07:39:17.808Z,-0.40
2018-12-21T07:43:21.298Z,-0.43
2018-12-21T07:47:24.724Z,-0.45
2018-12-21T07:51:28.216Z,-0.47
2018-12-21T07:55:31.659Z,-0.46
2018-12-21T07:59:35.137Z,-0.42
2018-12-21T08:03:38.600Z,-0.40
2018-12-21T08:07:42.108Z,-0.39
2018-12-21T08:11:45.615Z,-0.37
2018-12-21T08:15:49.124Z,-0.37
2018-12-21T08:19:52.908Z,-0.34
2018-12-21T08:23:56.424Z,-0.36
2018-12-21T08:27:59.861Z,-0.32
2018-12-21T08:32:05.819Z,-0.26
2018-12-21T08:36:09.293Z,-0.20
2018-12-21T08:40:12.723Z,-0.21
2018-12-21T08:44:16.782Z,-0.20
2018-12-21T08:48:20.278Z,-0.21
2018-12-21T08:52:23.774Z,-0.15
2018-12-21T08:56:28.113Z,-0.13
2018-12-21T09:00:31.556Z,0.08
2018-12-21T09:04:34.997Z,0.68
2018-12-21T09:08:38.537Z,1.07
2018-12-21T09:12:42.282Z,1.12
2018-12-21T09:16:45.866Z,0.91
2018-12-21T09:20:49.486Z,0.79
2018-12-21T09:24:53.118Z,0.76
2018-12-21T09:28:56.636Z,0.70
2018-12-21T09:33:00.217Z,0.68
2018-12-21T09:37:04.008Z,0.77
2018-12-21T09:41:07.692Z,0.74
2018-12-21T09:45:11.245Z,0.75
2018-12-21T09:49:14.750Z,0.81
2018-12-21T09:53:18.222Z,0.85
2018-12-21T09:57:21.645Z,0.86
2018-12-21T10:01:25.160Z,0.89
2018-12-21T10:05:28.622Z,0.92
2018-12-21T10:09:32.103Z,0.93
2018-12-21T10:13:35.591Z,0.95
2018-12-21T10:17:39.113Z,0.89
2018-12-21T10:21:42.561Z,0.92
2018-12-21T10:25:46.035Z,1.00
2018-12-21T10:29:49.531Z,1.12
2018-12-21T10:33:52.942Z,1.15
2018-12-21T10:37:56.381Z,1.10
2018-12-21T10:41:59.852Z,1.07
2018-12-21T10:46:03.351Z,1.07
2018-12-21T10:50:09.777Z,1.11
2018-12-21T10:54:13.216Z,1.09
2018-12-21T10:58:16.667Z,1.11
2018-12-21T11:02:20.113Z,1.09
2018-12-21T11:06:23.509Z,1.07
2018-12-21T11:10:26.952Z,1.07
2018-12-21T11:14:30.487Z,1.02
2018-12-21T11:18:33.900Z,0.98
2018-12-21T11:22:37.369Z,0.90
2018-12-21T11:26:40.937Z,0.99
2018-12-21T11:30:44.601Z,1.03
2018-12-21T11:34:48.110Z,1.09
2018-12-21T11:38:51.678Z,1.09
2018-12-21T11:42:55.188Z,1.12
2018-12-21T11:46:58.801Z,1.07
2018-12-21T11:51:03.304Z,1.08
2018-12-21T11:55:06.911Z,1.11
2018-12-21T11:59:10.411Z,1.09
2018-12-21T12:03:13.960Z,1.12
2018-12-21T12:07:17.674Z,1.15
2018-12-21T12:11:21.191Z,1.25
2018-12-21T12:15:24.817Z,1.23
2018-12-21T12:19:28.302Z,1.21
2018-12-21T12:23:31.760Z,1.20
2018-12-21T12:27:35.255Z,1.20
2018-12-21T12:31:38.802Z,1.22
2018-12-21T12:35:42.528Z,1.25
2018-12-21T12:39:46.114Z,1.28
2018-12-21T12:43:49.885Z,1.36
2018-12-21T12:47:53.351Z,1.43
2018-12-21T12:51:56.859Z,1.43
2018-12-21T12:56:00.306Z,1.40
2018-12-21T13:00:03.800Z,1.41
2018-12-21T13:04:07.251Z,1.45
2018-12-21T13:08:10.733Z,1.48
2018-12-21T13:12:14.186Z,1.49
2018-12-21T13:16:17.625Z,1.54
2018-12-21T13:20:21.092Z,1.59
2018-12-21T13:24:24.542Z,1.63
2018-12-21T13:28:27.992Z,1.71
2018-12-21T13:32:31.399Z,1.78
2018-12-21T13:36:36.634Z,1.83
2018-12-21T13:40:40.469Z,1.92
2018-12-21T13:44:44.247Z,1.98
2018-12-21T13:48:47.796Z,1.98
2018-12-21T13:52:51.419Z,1.91
2018-12-21T13:56:54.942Z,1.82
2018-12-21T14:00:58.424Z,1.79
2018-12-21T14:05:01.928Z,1.82
2018-12-21T14:09:07.756Z,1.86
2018-12-21T14:13:11.237Z,1.77
2018-12-21T14:17:14.687Z,1.75
2018-12-21T14:21:18.132Z,1.77
2018-12-21T14:25:28.762Z,1.77
2018-12-21T14:29:27.412Z,1.77
2018-12-21T14:33:30.869Z,1.83
2018-12-21T14:37:34.295Z,1.87
2018-12-21T14:41:37.821Z,1.86
2018-12-21T14:45:41.294Z,1.82
2018-12-21T14:49:44.751Z,1.83
2018-12-21T14:53:48.155Z,1.85
2018-12-21T14:57:51.603Z,1.89
2018-12-21T15:01:55.072Z,1.91
2018-12-21T15:05:58.500Z,1.96
2018-12-21T15:10:02.011Z,1.93
2018-12-21T15:14:05.488Z,1.91
2018-12-21T15:18:09.118Z,1.88
2018-12-21T15:22:12.561Z,1.82
2018-12-21T15:26:16.000Z,1.79
2018-12-21T15:30:19.454Z,1.72
2018-12-21T15:34:22.913Z,1.71
2018-12-21T15:38:26.385Z,1.63
2018-12-21T15:42:30.047Z,1.60
2018-12-21T15:46:33.600Z,1.63
2018-12-21T15:50:37.122Z,1.66
2018-12-21T15:54:40.802Z,1.86
2018-12-21T15:58:44.222Z,1.88
2018-12-21T16:02:51.253Z,1.95
2018-12-21T16:06:54.865Z,2.00
2018-12-21T16:10:58.369Z,2.01
2018-12-21T16:15:01.938Z,2.02
2018-12-21T16:19:05.383Z,1.98
2018-12-21T16:23:09.314Z,1.96
2018-12-21T16:27:12.766Z,1.97
2018-12-21T16:31:16.263Z,1.94
2018-12-21T16:35:19.804Z,1.96
2018-12-21T16:39:23.466Z,2.06
2018-12-21T16:43:27.128Z,2.05
2018-12-21T16:47:30.646Z,2.06
2018-12-21T16:51:34.212Z,2.05
2018-12-21T16:55:37.965Z,2.02
2018-12-21T16:59:42.072Z,1.96
2018-12-21T17:03:45.608Z,1.99
2018-12-21T17:07:49.122Z,1.94
2018-12-21T17:11:52.596Z,1.95
2018-12-21T17:15:56.055Z,1.92
2018-12-21T17:19:59.513Z,1.93
2018-12-21T17:24:03.019Z,1.97
2018-12-21T17:28:06.664Z,2.02
2018-12-21T17:32:10.645Z,2.06
2018-12-21T17:36:14.143Z,2.11
2018-12-21T17:40:18.068Z,2.10
2018-12-21T17:44:21.651Z,2.08
2018-12-21T17:48:25.258Z,2.11
2018-12-21T17:52:28.734Z,2.15
2018-12-21T17:56:32.154Z,2.19
2018-12-21T18:00:36.560Z,2.19
2018-12-21T18:04:39.999Z,2.17
2018-12-21T18:08:43.432Z,2.17
2018-12-21T18:12:46.977Z,2.21
2018-12-21T18:16:50.475Z,2.31
2018-12-21T18:20:54.096Z,2.31
2018-12-21T18:25:03.328Z,2.34
2018-12-21T18:29:06.817Z,2.34
2018-12-21T18:33:12.638Z,2.35
2018-12-21T18:37:16.137Z,2.38
2018-12-21T18:41:19.785Z,2.40
2018-12-21T18:45:23.239Z,2.46
2018-12-21T18:49:26.818Z,2.47
2018-12-21T18:53:30.378Z,2.47
2018-12-21T18:57:33.939Z,2.46
2018-12-21T19:01:37.436Z,2.44
2018-12-21T19:05:40.988Z,2.44
2018-12-21T19:09:44.476Z,2.44
2018-12-21T19:13:48.230Z,2.41
2018-12-21T19:17:51.764Z,2.40
2018-12-21T19:21:55.249Z,2.44
2018-12-21T19:25:58.691Z,2.50
2018-12-21T19:30:02.154Z,2.50
2018-12-21T19:34:05.608Z,2.49
2018-12-21T19:38:09.146Z,2.48
2018-12-21T19:42:12.726Z,2.45
2018-12-21T19:46:16.348Z,2.43
2018-12-21T19:50:19.984Z,2.39
2018-12-21T19:54:24.240Z,2.38
2018-12-21T19:58:27.764Z,2.37
2018-12-21T20:02:31.211Z,2.37
2018-12-21T20:06:34.836Z,2.35
2018-12-21T20:10:38.333Z,2.30
2018-12-21T20:14:41.862Z,2.25
2018-12-21T20:18:45.325Z,2.28
2018-12-21T20:22:48.834Z,2.31
2018-12-21T20:26:55.532Z,2.30
2018-12-21T20:31:00.069Z,2.30
2018-12-21T20:35:03.529Z,2.29
2018-12-21T20:39:14.308Z,2.31
2018-12-21T20:43:17.785Z,2.32
2018-12-21T20:47:21.202Z,2.33
2018-12-21T20:51:24.686Z,2.36
2018-12-21T20:55:28.325Z,2.38
2018-12-21T20:59:31.887Z,2.41
2018-12-21T21:03:35.491Z,2.43
2018-12-21T21:07:38.944Z,2.44
2018-12-21T21:11:42.439Z,2.38
2018-12-21T21:15:45.901Z,2.30
2018-12-21T21:19:49.300Z,2.23
2018-12-21T21:23:52.807Z,2.24
2018-12-21T21:27:56.440Z,2.21
2018-12-21T21:32:00.387Z,2.18
2018-12-21T21:36:04.176Z,2.17
2018-12-21T21:40:11.299Z,2.21
2018-12-21T21:44:15.928Z,2.25
2018-12-21T21:48:19.769Z,2.28
2018-12-21T21:52:23.436Z,2.33
2018-12-21T21:56:27.137Z,2.38
2018-12-21T22:00:32.629Z,2.39
2018-12-21T22:04:36.268Z,2.37
2018-12-21T22:08:39.779Z,2.35
2018-12-21T22:12:43.687Z,2.32
2018-12-21T22:16:47.688Z,2.33
2018-12-21T22:20:51.523Z,2.37
2018-12-21T22:24:55.119Z,2.40
2018-12-21T22:28:58.749Z,2.42
2018-12-21T22:33:02.473Z,2.49
2018-12-21T22:37:06.107Z,2.54
2018-12-21T22:41:09.890Z,2.61
2018-12-21T22:45:13.563Z,2.67
2018-12-21T22:49:17.120Z,2.70
2018-12-21T22:53:20.696Z,2.75
2018-12-21T22:57:24.141Z,2.80
2018-12-21T23:01:27.623Z,2.86
2018-12-21T23:05:31.105Z,2.93
2018-12-21T23:09:34.783Z,3.00
2018-12-21T23:13:38.360Z,3.07
2018-12-21T23:17:41.856Z,3.17
2018-12-21T23:21:45.340Z,3.27
2018-12-21T23:25:48.798Z,3.36
2018-12-21T23:29:52.289Z,3.40
2018-12-21T23:33:55.775Z,3.44
2018-12-21T23:37:59.223Z,3.47
2018-12-21T23:42:02.920Z,3.51
2018-12-21T23:46:06.364Z,3.57
2018-12-21T23:50:09.834Z,3.61
2018-12-21T23:54:13.952Z,3.61
2018-12-21T23:58:17.467Z,3.61
